sensor_id;sensor_type;location;lat;lon;timestamp;P1;durP1;ratioP1;P2;durP2;ratioP2
12296;SDS011;6211;49.124;9.152;2024-02-16T00:00:06;4.60;;;2.20;;
12296;SDS011;6211;49.124;9.152;2024-02-16T00:02:33;4.22;;;2.00;;
12296;SDS011;6211;49.124;9.152;2024-02-16T00:05:00;3.00;;;2.40;;
12296;SDS011;6211;49.124;9.152;2024-02-16T00:07:30;2.30;;;2.10;;
12296;SDS011;6211;49.124;9.152;2024-02-16T00:09:57;4.28;;;2.53;;
12296;SDS011;6211;49.124;9.152;2024-02-16T00:12:24;2.20;;;1.90;;
12296;SDS011;6211;49.124;9.152;2024-02-16T00:14:51;5.88;;;2.38;;
12296;SDS011;6211;49.124;9.152;2024-02-16T00:17:18;3.88;;;1.98;;
12296;SDS011;6211;49.124;9.152;2024-02-16T00:19:46;2.97;;;2.13;;
12296;SDS011;6211;49.124;9.152;2024-02-16T00:22:13;2.53;;;2.10;;
12296;SDS011;6211;49.124;9.152;2024-02-16T00:24:41;3.58;;;2.33;;
12296;SDS011;6211;49.124;9.152;2024-02-16T00:27:08;3.05;;;2.38;;
12296;SDS011;6211;49.124;9.152;2024-02-16T00:29:35;2.17;;;1.90;;
12296;SDS011;6211;49.124;9.152;2024-02-16T00:32:03;2.88;;;2.38;;
12296;SDS011;6211;49.124;9.152;2024-02-16T00:34:31;2.55;;;2.20;;
12296;SDS011;6211;49.124;9.152;2024-02-16T00:36:58;3.28;;;2.00;;
12296;SDS011;6211;49.124;9.152;2024-02-16T00:39:25;4.07;;;2.38;;
12296;SDS011;6211;49.124;9.152;2024-02-16T00:41:54;3.05;;;2.15;;
12296;SDS011;6211;49.124;9.152;2024-02-16T00:44:21;3.55;;;2.22;;
12296;SDS011;6211;49.124;9.152;2024-02-16T00:46:48;2.90;;;1.83;;
12296;SDS011;6211;49.124;9.152;2024-02-16T00:49:15;2.13;;;1.92;;
12296;SDS011;6211;49.124;9.152;2024-02-16T00:51:43;4.32;;;2.50;;
12296;SDS011;6211;49.124;9.152;2024-02-16T00:54:10;3.03;;;2.15;;
12296;SDS011;6211;49.124;9.152;2024-02-16T00:56:37;2.40;;;1.95;;
12296;SDS011;6211;49.124;9.152;2024-02-16T00:59:05;2.33;;;2.00;;
12296;SDS011;6211;49.124;9.152;2024-02-16T01:01:34;2.30;;;2.10;;
12296;SDS011;6211;49.124;9.152;2024-02-16T01:04:01;4.95;;;2.40;;
12296;SDS011;6211;49.124;9.152;2024-02-16T01:06:29;2.20;;;2.00;;
12296;SDS011;6211;49.124;9.152;2024-02-16T01:08:56;2.38;;;2.13;;
12296;SDS011;6211;49.124;9.152;2024-02-16T01:11:23;2.35;;;2.00;;
12296;SDS011;6211;49.124;9.152;2024-02-16T01:13:50;2.83;;;2.30;;
12296;SDS011;6211;49.124;9.152;2024-02-16T01:16:19;3.05;;;2.33;;
12296;SDS011;6211;49.124;9.152;2024-02-16T01:18:46;3.50;;;2.20;;
12296;SDS011;6211;49.124;9.152;2024-02-16T01:21:13;2.83;;;2.03;;
12296;SDS011;6211;49.124;9.152;2024-02-16T01:23:40;2.40;;;2.13;;
12296;SDS011;6211;49.124;9.152;2024-02-16T01:26:07;3.70;;;2.10;;
12296;SDS011;6211;49.124;9.152;2024-02-16T01:28:34;3.28;;;2.13;;
12296;SDS011;6211;49.124;9.152;2024-02-16T01:31:01;3.53;;;2.08;;
12296;SDS011;6211;49.124;9.152;2024-02-16T01:33:30;3.83;;;1.92;;
12296;SDS011;6211;49.124;9.152;2024-02-16T01:35:59;2.70;;;2.25;;
12296;SDS011;6211;49.124;9.152;2024-02-16T01:38:26;2.42;;;2.10;;
12296;SDS011;6211;49.124;9.152;2024-02-16T01:40:53;2.88;;;2.42;;
12296;SDS011;6211;49.124;9.152;2024-02-16T01:43:21;2.97;;;2.25;;
12296;SDS011;6211;49.124;9.152;2024-02-16T01:45:48;2.25;;;2.05;;
12296;SDS011;6211;49.124;9.152;2024-02-16T01:48:16;2.53;;;2.30;;
12296;SDS011;6211;49.124;9.152;2024-02-16T01:50:44;3.83;;;2.05;;
12296;SDS011;6211;49.124;9.152;2024-02-16T01:53:12;2.88;;;2.20;;
12296;SDS011;6211;49.124;9.152;2024-02-16T01:55:39;2.88;;;2.40;;
12296;SDS011;6211;49.124;9.152;2024-02-16T01:58:06;2.50;;;2.20;;
12296;SDS011;6211;49.124;9.152;2024-02-16T02:00:33;2.45;;;2.17;;
12296;SDS011;6211;49.124;9.152;2024-02-16T02:03:00;2.50;;;2.00;;
12296;SDS011;6211;49.124;9.152;2024-02-16T02:05:28;3.08;;;2.13;;
12296;SDS011;6211;49.124;9.152;2024-02-16T02:07:56;2.95;;;2.75;;
12296;SDS011;6211;49.124;9.152;2024-02-16T02:10:23;2.05;;;1.95;;
12296;SDS011;6211;49.124;9.152;2024-02-16T02:12:51;2.22;;;2.03;;
12296;SDS011;6211;49.124;9.152;2024-02-16T02:15:18;3.80;;;1.88;;
12296;SDS011;6211;49.124;9.152;2024-02-16T02:17:45;2.75;;;1.98;;
12296;SDS011;6211;49.124;9.152;2024-02-16T02:20:12;2.88;;;2.33;;
12296;SDS011;6211;49.124;9.152;2024-02-16T02:22:41;3.28;;;1.73;;
12296;SDS011;6211;49.124;9.152;2024-02-16T02:25:08;3.75;;;2.38;;
12296;SDS011;6211;49.124;9.152;2024-02-16T02:27:36;2.75;;;1.98;;
12296;SDS011;6211;49.124;9.152;2024-02-16T02:30:03;3.35;;;2.15;;
12296;SDS011;6211;49.124;9.152;2024-02-16T02:32:31;3.72;;;2.38;;
12296;SDS011;6211;49.124;9.152;2024-02-16T02:34:58;2.58;;;2.08;;
12296;SDS011;6211;49.124;9.152;2024-02-16T02:37:26;3.97;;;2.10;;
12296;SDS011;6211;49.124;9.152;2024-02-16T02:39:54;2.53;;;2.30;;
12296;SDS011;6211;49.124;9.152;2024-02-16T02:42:21;3.25;;;2.63;;
12296;SDS011;6211;49.124;9.152;2024-02-16T02:44:49;2.20;;;2.00;;
12296;SDS011;6211;49.124;9.152;2024-02-16T02:47:16;2.97;;;2.53;;
12296;SDS011;6211;49.124;9.152;2024-02-16T02:49:43;6.45;;;2.75;;
12296;SDS011;6211;49.124;9.152;2024-02-16T02:52:10;2.75;;;2.30;;
12296;SDS011;6211;49.124;9.152;2024-02-16T02:54:37;3.40;;;2.47;;
12296;SDS011;6211;49.124;9.152;2024-02-16T02:57:06;3.33;;;2.20;;
12296;SDS011;6211;49.124;9.152;2024-02-16T02:59:33;2.65;;;2.38;;
12296;SDS011;6211;49.124;9.152;2024-02-16T03:02:00;2.50;;;2.30;;
12296;SDS011;6211;49.124;9.152;2024-02-16T03:04:27;2.65;;;2.17;;
12296;SDS011;6211;49.124;9.152;2024-02-16T03:06:54;3.38;;;2.25;;
12296;SDS011;6211;49.124;9.152;2024-02-16T03:09:21;5.63;;;3.17;;
12296;SDS011;6211;49.124;9.152;2024-02-16T03:11:48;4.85;;;3.13;;
12296;SDS011;6211;49.124;9.152;2024-02-16T03:14:17;3.13;;;2.35;;
12296;SDS011;6211;49.124;9.152;2024-02-16T03:16:44;2.83;;;2.53;;
12296;SDS011;6211;49.124;9.152;2024-02-16T03:19:11;4.10;;;3.00;;
12296;SDS011;6211;49.124;9.152;2024-02-16T03:21:38;3.53;;;2.50;;
12296;SDS011;6211;49.124;9.152;2024-02-16T03:24:05;3.15;;;2.50;;
12296;SDS011;6211;49.124;9.152;2024-02-16T03:26:33;5.25;;;2.63;;
12296;SDS011;6211;49.124;9.152;2024-02-16T03:29:00;3.05;;;2.58;;
12296;SDS011;6211;49.124;9.152;2024-02-16T03:31:29;2.85;;;2.20;;
12296;SDS011;6211;49.124;9.152;2024-02-16T03:33:58;3.10;;;2.65;;
12296;SDS011;6211;49.124;9.152;2024-02-16T03:36:25;5.47;;;2.63;;
12296;SDS011;6211;49.124;9.152;2024-02-16T03:38:52;2.65;;;2.30;;
12296;SDS011;6211;49.124;9.152;2024-02-16T03:41:20;4.47;;;2.95;;
12296;SDS011;6211;49.124;9.152;2024-02-16T03:43:48;3.97;;;2.83;;
12296;SDS011;6211;49.124;9.152;2024-02-16T03:46:15;3.50;;;2.95;;
12296;SDS011;6211;49.124;9.152;2024-02-16T03:48:43;6.03;;;3.17;;
12296;SDS011;6211;49.124;9.152;2024-02-16T03:51:11;5.55;;;3.03;;
12296;SDS011;6211;49.124;9.152;2024-02-16T03:53:38;5.35;;;3.65;;
12296;SDS011;6211;49.124;9.152;2024-02-16T03:56:05;4.63;;;3.47;;
12296;SDS011;6211;49.124;9.152;2024-02-16T03:58:33;4.63;;;2.83;;
12296;SDS011;6211;49.124;9.152;2024-02-16T04:01:00;5.30;;;3.55;;
12296;SDS011;6211;49.124;9.152;2024-02-16T04:03:27;5.20;;;3.17;;
12296;SDS011;6211;49.124;9.152;2024-02-16T04:05:55;2.90;;;2.70;;
12296;SDS011;6211;49.124;9.152;2024-02-16T04:08:24;4.45;;;3.33;;
12296;SDS011;6211;49.124;9.152;2024-02-16T04:10:51;5.13;;;2.75;;
12296;SDS011;6211;49.124;9.152;2024-02-16T04:13:18;4.80;;;3.53;;
12296;SDS011;6211;49.124;9.152;2024-02-16T04:15:46;4.72;;;3.38;;
12296;SDS011;6211;49.124;9.152;2024-02-16T04:18:13;4.45;;;3.45;;
12296;SDS011;6211;49.124;9.152;2024-02-16T04:20:40;6.10;;;4.00;;
12296;SDS011;6211;49.124;9.152;2024-02-16T04:23:08;5.00;;;3.00;;
12296;SDS011;6211;49.124;9.152;2024-02-16T04:25:35;4.50;;;3.45;;
12296;SDS011;6211;49.124;9.152;2024-02-16T04:28:03;5.20;;;3.78;;
12296;SDS011;6211;49.124;9.152;2024-02-16T04:30:30;3.85;;;3.00;;
12296;SDS011;6211;49.124;9.152;2024-02-16T04:32:57;4.50;;;3.17;;
12296;SDS011;6211;49.124;9.152;2024-02-16T04:35:24;6.28;;;3.38;;
12296;SDS011;6211;49.124;9.152;2024-02-16T04:37:51;3.40;;;3.10;;
12296;SDS011;6211;49.124;9.152;2024-02-16T04:40:20;10.13;;;4.25;;
12296;SDS011;6211;49.124;9.152;2024-02-16T04:42:47;5.90;;;3.63;;
12296;SDS011;6211;49.124;9.152;2024-02-16T04:45:14;5.05;;;2.95;;
12296;SDS011;6211;49.124;9.152;2024-02-16T04:47:42;4.82;;;3.15;;
12296;SDS011;6211;49.124;9.152;2024-02-16T04:50:09;4.20;;;3.15;;
12296;SDS011;6211;49.124;9.152;2024-02-16T04:52:37;2.85;;;2.50;;
12296;SDS011;6211;49.124;9.152;2024-02-16T04:55:06;3.92;;;3.05;;
12296;SDS011;6211;49.124;9.152;2024-02-16T04:57:34;11.65;;;3.40;;
12296;SDS011;6211;49.124;9.152;2024-02-16T05:00:02;6.72;;;3.72;;
12296;SDS011;6211;49.124;9.152;2024-02-16T05:02:29;4.63;;;3.03;;
12296;SDS011;6211;49.124;9.152;2024-02-16T05:04:56;7.55;;;3.67;;
12296;SDS011;6211;49.124;9.152;2024-02-16T05:07:24;10.93;;;3.92;;
12296;SDS011;6211;49.124;9.152;2024-02-16T05:09:51;7.05;;;4.28;;
12296;SDS011;6211;49.124;9.152;2024-02-16T05:12:23;4.35;;;3.13;;
12296;SDS011;6211;49.124;9.152;2024-02-16T05:14:51;4.20;;;3.08;;
12296;SDS011;6211;49.124;9.152;2024-02-16T05:17:18;6.97;;;3.45;;
12296;SDS011;6211;49.124;9.152;2024-02-16T05:19:47;3.72;;;3.22;;
12296;SDS011;6211;49.124;9.152;2024-02-16T05:22:15;3.72;;;2.90;;
12296;SDS011;6211;49.124;9.152;2024-02-16T05:24:43;3.95;;;3.03;;
12296;SDS011;6211;49.124;9.152;2024-02-16T05:27:10;4.93;;;3.13;;
12296;SDS011;6211;49.124;9.152;2024-02-16T05:29:38;5.07;;;2.95;;
12296;SDS011;6211;49.124;9.152;2024-02-16T05:32:06;6.32;;;2.95;;
12296;SDS011;6211;49.124;9.152;2024-02-16T05:34:35;4.13;;;2.80;;
12296;SDS011;6211;49.124;9.152;2024-02-16T05:37:03;4.57;;;3.10;;
12296;SDS011;6211;49.124;9.152;2024-02-16T05:39:31;3.30;;;2.85;;
12296;SDS011;6211;49.124;9.152;2024-02-16T05:42:00;3.95;;;3.10;;
12296;SDS011;6211;49.124;9.152;2024-02-16T05:44:27;3.63;;;2.80;;
12296;SDS011;6211;49.124;9.152;2024-02-16T05:46:55;5.47;;;2.85;;
12296;SDS011;6211;49.124;9.152;2024-02-16T05:49:23;4.35;;;2.67;;
12296;SDS011;6211;49.124;9.152;2024-02-16T05:51:50;4.03;;;2.88;;
12296;SDS011;6211;49.124;9.152;2024-02-16T05:54:42;2.80;;;2.50;;
12296;SDS011;6211;49.124;9.152;2024-02-16T05:57:09;4.68;;;2.85;;
12296;SDS011;6211;49.124;9.152;2024-02-16T05:59:37;3.28;;;2.90;;
12296;SDS011;6211;49.124;9.152;2024-02-16T06:02:04;6.72;;;3.08;;
12296;SDS011;6211;49.124;9.152;2024-02-16T06:04:35;6.95;;;3.28;;
12296;SDS011;6211;49.124;9.152;2024-02-16T06:07:02;3.13;;;2.63;;
12296;SDS011;6211;49.124;9.152;2024-02-16T06:09:30;5.53;;;3.40;;
12296;SDS011;6211;49.124;9.152;2024-02-16T06:12:00;3.78;;;2.83;;
12296;SDS011;6211;49.124;9.152;2024-02-16T06:14:29;4.18;;;2.53;;
12296;SDS011;6211;49.124;9.152;2024-02-16T06:17:05;5.07;;;3.25;;
12296;SDS011;6211;49.124;9.152;2024-02-16T06:19:35;2.85;;;2.55;;
12296;SDS011;6211;49.124;9.152;2024-02-16T06:22:02;5.68;;;2.85;;
12296;SDS011;6211;49.124;9.152;2024-02-16T06:24:29;5.80;;;2.97;;
12296;SDS011;6211;49.124;9.152;2024-02-16T06:26:57;4.45;;;2.72;;
12296;SDS011;6211;49.124;9.152;2024-02-16T06:29:24;4.00;;;3.25;;
12296;SDS011;6211;49.124;9.152;2024-02-16T06:31:51;3.78;;;2.50;;
12296;SDS011;6211;49.124;9.152;2024-02-16T06:34:18;3.28;;;2.60;;
12296;SDS011;6211;49.124;9.152;2024-02-16T06:36:47;3.10;;;2.78;;
12296;SDS011;6211;49.124;9.152;2024-02-16T06:39:14;5.00;;;3.05;;
12296;SDS011;6211;49.124;9.152;2024-02-16T06:41:43;3.80;;;2.95;;
12296;SDS011;6211;49.124;9.152;2024-02-16T06:44:11;2.92;;;2.63;;
12296;SDS011;6211;49.124;9.152;2024-02-16T06:46:39;4.18;;;2.85;;
12296;SDS011;6211;49.124;9.152;2024-02-16T06:49:06;7.05;;;3.03;;
12296;SDS011;6211;49.124;9.152;2024-02-16T06:51:33;6.13;;;3.47;;
12296;SDS011;6211;49.124;9.152;2024-02-16T06:54:01;4.35;;;3.22;;
12296;SDS011;6211;49.124;9.152;2024-02-16T06:56:28;4.03;;;3.25;;
12296;SDS011;6211;49.124;9.152;2024-02-16T06:58:56;4.65;;;3.45;;
12296;SDS011;6211;49.124;9.152;2024-02-16T07:01:23;4.80;;;3.42;;
12296;SDS011;6211;49.124;9.152;2024-02-16T07:03:52;6.45;;;3.33;;
12296;SDS011;6211;49.124;9.152;2024-02-16T07:06:19;6.55;;;3.20;;
12296;SDS011;6211;49.124;9.152;2024-02-16T07:08:47;3.97;;;3.33;;
12296;SDS011;6211;49.124;9.152;2024-02-16T07:11:15;6.50;;;3.67;;
12296;SDS011;6211;49.124;9.152;2024-02-16T07:13:43;4.95;;;3.13;;
12296;SDS011;6211;49.124;9.152;2024-02-16T07:16:11;5.03;;;3.53;;
12296;SDS011;6211;49.124;9.152;2024-02-16T07:18:39;4.13;;;3.53;;
12296;SDS011;6211;49.124;9.152;2024-02-16T07:21:07;7.47;;;4.05;;
12296;SDS011;6211;49.124;9.152;2024-02-16T07:23:35;7.90;;;3.92;;
12296;SDS011;6211;49.124;9.152;2024-02-16T07:26:02;6.38;;;3.75;;
12296;SDS011;6211;49.124;9.152;2024-02-16T07:28:31;5.25;;;4.15;;
12296;SDS011;6211;49.124;9.152;2024-02-16T07:30:58;5.60;;;3.70;;
12296;SDS011;6211;49.124;9.152;2024-02-16T07:33:25;4.53;;;3.60;;
12296;SDS011;6211;49.124;9.152;2024-02-16T07:35:53;6.97;;;3.65;;
12296;SDS011;6211;49.124;9.152;2024-02-16T07:38:20;8.38;;;4.13;;
12296;SDS011;6211;49.124;9.152;2024-02-16T07:40:48;5.00;;;3.30;;
12296;SDS011;6211;49.124;9.152;2024-02-16T07:43:15;6.85;;;2.92;;
12296;SDS011;6211;49.124;9.152;2024-02-16T07:45:44;5.50;;;3.53;;
12296;SDS011;6211;49.124;9.152;2024-02-16T07:48:11;4.43;;;2.90;;
12296;SDS011;6211;49.124;9.152;2024-02-16T07:50:39;3.03;;;2.72;;
12296;SDS011;6211;49.124;9.152;2024-02-16T07:53:06;4.63;;;3.55;;
12296;SDS011;6211;49.124;9.152;2024-02-16T07:55:34;7.95;;;3.33;;
12296;SDS011;6211;49.124;9.152;2024-02-16T07:58:02;4.43;;;3.85;;
12296;SDS011;6211;49.124;9.152;2024-02-16T08:00:29;8.60;;;4.20;;
12296;SDS011;6211;49.124;9.152;2024-02-16T08:02:57;7.20;;;3.08;;
12296;SDS011;6211;49.124;9.152;2024-02-16T08:05:25;5.95;;;3.30;;
12296;SDS011;6211;49.124;9.152;2024-02-16T08:07:52;3.85;;;3.15;;
12296;SDS011;6211;49.124;9.152;2024-02-16T08:10:20;4.55;;;3.08;;
12296;SDS011;6211;49.124;9.152;2024-02-16T08:12:47;4.20;;;2.60;;
12296;SDS011;6211;49.124;9.152;2024-02-16T08:15:14;2.60;;;2.40;;
12296;SDS011;6211;49.124;9.152;2024-02-16T08:17:48;6.20;;;2.67;;
12296;SDS011;6211;49.124;9.152;2024-02-16T08:20:16;4.00;;;2.60;;
12296;SDS011;6211;49.124;9.152;2024-02-16T08:22:44;3.55;;;2.58;;
12296;SDS011;6211;49.124;9.152;2024-02-16T08:25:11;2.75;;;2.45;;
12296;SDS011;6211;49.124;9.152;2024-02-16T08:27:38;3.38;;;2.95;;
12296;SDS011;6211;49.124;9.152;2024-02-16T08:30:06;5.30;;;2.70;;
12296;SDS011;6211;49.124;9.152;2024-02-16T08:32:34;3.80;;;2.90;;
12296;SDS011;6211;49.124;9.152;2024-02-16T08:35:01;2.88;;;2.42;;
12296;SDS011;6211;49.124;9.152;2024-02-16T08:37:30;2.20;;;2.00;;
12296;SDS011;6211;49.124;9.152;2024-02-16T08:39:58;4.57;;;2.50;;
12296;SDS011;6211;49.124;9.152;2024-02-16T08:42:25;3.00;;;2.70;;
12296;SDS011;6211;49.124;9.152;2024-02-16T08:44:52;2.85;;;2.60;;
12296;SDS011;6211;49.124;9.152;2024-02-16T08:47:19;3.90;;;2.45;;
12296;SDS011;6211;49.124;9.152;2024-02-16T08:49:47;4.22;;;2.75;;
12296;SDS011;6211;49.124;9.152;2024-02-16T08:52:14;3.00;;;2.50;;
12296;SDS011;6211;49.124;9.152;2024-02-16T08:54:43;3.25;;;2.30;;
12296;SDS011;6211;49.124;9.152;2024-02-16T08:57:10;6.47;;;2.65;;
12296;SDS011;6211;49.124;9.152;2024-02-16T08:59:37;5.13;;;2.85;;
12296;SDS011;6211;49.124;9.152;2024-02-16T09:02:04;7.93;;;3.17;;
12296;SDS011;6211;49.124;9.152;2024-02-16T09:04:32;4.57;;;3.08;;
12296;SDS011;6211;49.124;9.152;2024-02-16T09:06:59;7.65;;;3.00;;
12296;SDS011;6211;49.124;9.152;2024-02-16T09:09:26;8.02;;;2.92;;
12296;SDS011;6211;49.124;9.152;2024-02-16T09:11:55;5.93;;;3.13;;
12296;SDS011;6211;49.124;9.152;2024-02-16T09:14:22;3.95;;;3.25;;
12296;SDS011;6211;49.124;9.152;2024-02-16T09:16:50;4.28;;;3.03;;
12296;SDS011;6211;49.124;9.152;2024-02-16T09:19:17;6.72;;;3.03;;
12296;SDS011;6211;49.124;9.152;2024-02-16T09:21:45;4.30;;;2.70;;
12296;SDS011;6211;49.124;9.152;2024-02-16T09:24:12;3.17;;;2.83;;
12296;SDS011;6211;49.124;9.152;2024-02-16T09:26:42;5.55;;;2.70;;
12296;SDS011;6211;49.124;9.152;2024-02-16T09:29:12;5.43;;;3.13;;
12296;SDS011;6211;49.124;9.152;2024-02-16T09:31:39;4.93;;;2.92;;
12296;SDS011;6211;49.124;9.152;2024-02-16T09:34:07;3.13;;;2.72;;
12296;SDS011;6211;49.124;9.152;2024-02-16T09:36:34;3.42;;;2.90;;
12296;SDS011;6211;49.124;9.152;2024-02-16T09:39:02;2.83;;;2.58;;
12296;SDS011;6211;49.124;9.152;2024-02-16T09:41:29;4.18;;;3.20;;
12296;SDS011;6211;49.124;9.152;2024-02-16T09:43:58;3.53;;;2.92;;
12296;SDS011;6211;49.124;9.152;2024-02-16T09:46:26;3.80;;;2.60;;
12296;SDS011;6211;49.124;9.152;2024-02-16T09:48:54;2.67;;;2.45;;
12296;SDS011;6211;49.124;9.152;2024-02-16T09:51:22;4.00;;;2.20;;
12296;SDS011;6211;49.124;9.152;2024-02-16T09:53:50;3.75;;;2.42;;
12296;SDS011;6211;49.124;9.152;2024-02-16T09:56:18;6.22;;;2.60;;
12296;SDS011;6211;49.124;9.152;2024-02-16T09:58:46;2.92;;;2.55;;
12296;SDS011;6211;49.124;9.152;2024-02-16T10:01:17;3.28;;;2.97;;
12296;SDS011;6211;49.124;9.152;2024-02-16T10:03:47;7.65;;;2.70;;
12296;SDS011;6211;49.124;9.152;2024-02-16T10:06:14;3.92;;;2.55;;
12296;SDS011;6211;49.124;9.152;2024-02-16T10:08:48;3.95;;;2.80;;
12296;SDS011;6211;49.124;9.152;2024-02-16T10:11:16;6.30;;;2.58;;
12296;SDS011;6211;49.124;9.152;2024-02-16T10:13:53;9.80;;;2.92;;
12296;SDS011;6211;49.124;9.152;2024-02-16T10:16:21;3.42;;;2.53;;
12296;SDS011;6211;49.124;9.152;2024-02-16T10:18:49;2.78;;;2.53;;
12296;SDS011;6211;49.124;9.152;2024-02-16T10:21:23;6.60;;;2.83;;
12296;SDS011;6211;49.124;9.152;2024-02-16T10:23:55;3.45;;;2.60;;
12296;SDS011;6211;49.124;9.152;2024-02-16T10:26:22;4.90;;;2.45;;
12296;SDS011;6211;49.124;9.152;2024-02-16T10:28:50;3.75;;;2.60;;
12296;SDS011;6211;49.124;9.152;2024-02-16T10:31:20;5.57;;;3.10;;
12296;SDS011;6211;49.124;9.152;2024-02-16T10:33:57;2.83;;;2.40;;
12296;SDS011;6211;49.124;9.152;2024-02-16T10:36:25;3.63;;;2.60;;
12296;SDS011;6211;49.124;9.152;2024-02-16T10:38:53;3.78;;;2.63;;
12296;SDS011;6211;49.124;9.152;2024-02-16T10:41:21;6.88;;;2.60;;
12296;SDS011;6211;49.124;9.152;2024-02-16T10:43:49;4.45;;;3.08;;
12296;SDS011;6211;49.124;9.152;2024-02-16T10:46:16;3.95;;;2.88;;
12296;SDS011;6211;49.124;9.152;2024-02-16T10:48:43;3.88;;;3.00;;
12296;SDS011;6211;49.124;9.152;2024-02-16T10:51:11;4.70;;;2.65;;
12296;SDS011;6211;49.124;9.152;2024-02-16T10:53:40;3.30;;;2.58;;
12296;SDS011;6211;49.124;9.152;2024-02-16T10:56:08;4.25;;;2.25;;
12296;SDS011;6211;49.124;9.152;2024-02-16T10:58:36;3.72;;;2.40;;
12296;SDS011;6211;49.124;9.152;2024-02-16T11:01:07;2.30;;;2.10;;
12296;SDS011;6211;49.124;9.152;2024-02-16T11:03:37;3.78;;;2.38;;
12296;SDS011;6211;49.124;9.152;2024-02-16T11:06:13;2.40;;;2.20;;
12296;SDS011;6211;49.124;9.152;2024-02-16T11:08:41;5.82;;;2.85;;
12296;SDS011;6211;49.124;9.152;2024-02-16T11:11:09;8.57;;;2.58;;
12296;SDS011;6211;49.124;9.152;2024-02-16T11:13:38;4.75;;;2.55;;
12296;SDS011;6211;49.124;9.152;2024-02-16T11:16:06;5.38;;;2.78;;
12296;SDS011;6211;49.124;9.152;2024-02-16T11:18:37;2.85;;;2.42;;
12296;SDS011;6211;49.124;9.152;2024-02-16T11:21:04;3.75;;;2.38;;
12296;SDS011;6211;49.124;9.152;2024-02-16T11:23:35;3.92;;;2.40;;
12296;SDS011;6211;49.124;9.152;2024-02-16T11:26:03;3.45;;;2.30;;
12296;SDS011;6211;49.124;9.152;2024-02-16T11:28:32;4.63;;;2.70;;
12296;SDS011;6211;49.124;9.152;2024-02-16T11:30:59;3.60;;;2.50;;
12296;SDS011;6211;49.124;9.152;2024-02-16T11:33:27;3.20;;;2.55;;
12296;SDS011;6211;49.124;9.152;2024-02-16T11:35:55;4.90;;;2.75;;
12296;SDS011;6211;49.124;9.152;2024-02-16T11:38:22;11.77;;;3.50;;
12296;SDS011;6211;49.124;9.152;2024-02-16T11:40:55;5.53;;;2.90;;
12296;SDS011;6211;49.124;9.152;2024-02-16T11:43:22;3.90;;;2.67;;
12296;SDS011;6211;49.124;9.152;2024-02-16T11:45:50;5.28;;;2.88;;
12296;SDS011;6211;49.124;9.152;2024-02-16T11:48:19;3.40;;;2.97;;
12296;SDS011;6211;49.124;9.152;2024-02-16T11:50:47;6.03;;;3.30;;
12296;SDS011;6211;49.124;9.152;2024-02-16T11:53:17;3.63;;;2.70;;
12296;SDS011;6211;49.124;9.152;2024-02-16T11:55:48;5.00;;;2.95;;
12296;SDS011;6211;49.124;9.152;2024-02-16T11:58:17;3.03;;;2.70;;
12296;SDS011;6211;49.124;9.152;2024-02-16T12:00:45;5.85;;;3.05;;
12296;SDS011;6211;49.124;9.152;2024-02-16T12:03:17;3.72;;;3.00;;
12296;SDS011;6211;49.124;9.152;2024-02-16T12:05:49;3.78;;;2.67;;
12296;SDS011;6211;49.124;9.152;2024-02-16T12:08:16;2.85;;;2.50;;
12296;SDS011;6211;49.124;9.152;2024-02-16T12:10:44;3.45;;;2.53;;
12296;SDS011;6211;49.124;9.152;2024-02-16T12:13:11;5.30;;;2.60;;
12296;SDS011;6211;49.124;9.152;2024-02-16T12:15:40;4.15;;;2.55;;
12296;SDS011;6211;49.124;9.152;2024-02-16T12:18:07;6.00;;;2.63;;
12296;SDS011;6211;49.124;9.152;2024-02-16T12:20:34;3.88;;;2.03;;
12296;SDS011;6211;49.124;9.152;2024-02-16T12:23:10;1.42;;;1.20;;
12296;SDS011;6211;49.124;9.152;2024-02-16T12:25:37;2.92;;;1.35;;
12296;SDS011;6211;49.124;9.152;2024-02-16T12:28:05;4.18;;;1.55;;
12296;SDS011;6211;49.124;9.152;2024-02-16T12:30:32;1.80;;;1.02;;
12296;SDS011;6211;49.124;9.152;2024-02-16T12:33:03;2.05;;;1.30;;
12296;SDS011;6211;49.124;9.152;2024-02-16T12:35:31;3.28;;;1.48;;
12296;SDS011;6211;49.124;9.152;2024-02-16T12:37:59;3.08;;;1.35;;
12296;SDS011;6211;49.124;9.152;2024-02-16T12:40:26;1.45;;;1.35;;
12296;SDS011;6211;49.124;9.152;2024-02-16T12:42:54;2.53;;;1.40;;
12296;SDS011;6211;49.124;9.152;2024-02-16T12:45:21;3.28;;;1.58;;
12296;SDS011;6211;49.124;9.152;2024-02-16T12:47:48;3.70;;;1.40;;
12296;SDS011;6211;49.124;9.152;2024-02-16T12:50:17;2.75;;;1.42;;
12296;SDS011;6211;49.124;9.152;2024-02-16T12:52:44;2.22;;;1.45;;
12296;SDS011;6211;49.124;9.152;2024-02-16T12:55:11;1.80;;;1.52;;
12296;SDS011;6211;49.124;9.152;2024-02-16T12:57:39;1.40;;;1.30;;
12296;SDS011;6211;49.124;9.152;2024-02-16T13:00:07;3.65;;;1.20;;
12296;SDS011;6211;49.124;9.152;2024-02-16T13:02:34;2.17;;;1.60;;
12296;SDS011;6211;49.124;9.152;2024-02-16T13:05:01;2.30;;;1.35;;
12296;SDS011;6211;49.124;9.152;2024-02-16T13:07:29;3.35;;;1.25;;
12296;SDS011;6211;49.124;9.152;2024-02-16T13:09:56;3.85;;;1.88;;
12296;SDS011;6211;49.124;9.152;2024-02-16T13:12:24;3.13;;;1.50;;
12296;SDS011;6211;49.124;9.152;2024-02-16T13:14:52;2.13;;;1.50;;
12296;SDS011;6211;49.124;9.152;2024-02-16T13:17:19;1.90;;;1.40;;
12296;SDS011;6211;49.124;9.152;2024-02-16T13:19:46;5.15;;;1.60;;
12296;SDS011;6211;49.124;9.152;2024-02-16T13:22:13;4.40;;;1.85;;
12296;SDS011;6211;49.124;9.152;2024-02-16T13:24:42;3.28;;;1.67;;
12296;SDS011;6211;49.124;9.152;2024-02-16T13:27:09;3.05;;;1.20;;
12296;SDS011;6211;49.124;9.152;2024-02-16T13:29:37;3.05;;;1.70;;
12296;SDS011;6211;49.124;9.152;2024-02-16T13:32:04;2.17;;;1.73;;
12296;SDS011;6211;49.124;9.152;2024-02-16T13:34:31;3.13;;;1.63;;
12296;SDS011;6211;49.124;9.152;2024-02-16T13:36:58;3.60;;;1.48;;
12296;SDS011;6211;49.124;9.152;2024-02-16T13:39:25;1.88;;;1.60;;
12296;SDS011;6211;49.124;9.152;2024-02-16T13:41:54;5.72;;;1.73;;
12296;SDS011;6211;49.124;9.152;2024-02-16T13:44:22;5.18;;;2.05;;
12296;SDS011;6211;49.124;9.152;2024-02-16T13:46:49;2.00;;;1.60;;
12296;SDS011;6211;49.124;9.152;2024-02-16T13:49:16;3.65;;;1.52;;
12296;SDS011;6211;49.124;9.152;2024-02-16T13:51:44;3.80;;;2.00;;
12296;SDS011;6211;49.124;9.152;2024-02-16T13:54:11;2.65;;;1.45;;
12296;SDS011;6211;49.124;9.152;2024-02-16T13:56:38;4.57;;;1.80;;
12296;SDS011;6211;49.124;9.152;2024-02-16T13:59:07;6.07;;;1.90;;
12296;SDS011;6211;49.124;9.152;2024-02-16T14:01:34;3.08;;;1.90;;
12296;SDS011;6211;49.124;9.152;2024-02-16T14:04:02;3.58;;;1.77;;
12296;SDS011;6211;49.124;9.152;2024-02-16T14:06:29;3.67;;;1.83;;
12296;SDS011;6211;49.124;9.152;2024-02-16T14:08:57;5.18;;;1.73;;
12296;SDS011;6211;49.124;9.152;2024-02-16T14:11:24;6.47;;;1.63;;
12296;SDS011;6211;49.124;9.152;2024-02-16T14:13:51;2.60;;;1.52;;
12296;SDS011;6211;49.124;9.152;2024-02-16T14:16:19;2.15;;;1.50;;
12296;SDS011;6211;49.124;9.152;2024-02-16T14:18:47;3.63;;;1.73;;
12296;SDS011;6211;49.124;9.152;2024-02-16T14:21:16;2.97;;;1.65;;
12296;SDS011;6211;49.124;9.152;2024-02-16T14:23:43;2.38;;;1.45;;
12296;SDS011;6211;49.124;9.152;2024-02-16T14:26:10;1.67;;;1.45;;
12296;SDS011;6211;49.124;9.152;2024-02-16T14:28:37;2.15;;;1.42;;
12296;SDS011;6211;49.124;9.152;2024-02-16T14:31:04;2.88;;;1.40;;
12296;SDS011;6211;49.124;9.152;2024-02-16T14:33:33;4.22;;;1.50;;
12296;SDS011;6211;49.124;9.152;2024-02-16T14:36:01;1.73;;;1.33;;
12296;SDS011;6211;49.124;9.152;2024-02-16T14:38:28;2.65;;;1.23;;
12296;SDS011;6211;49.124;9.152;2024-02-16T14:40:55;3.92;;;1.83;;
12296;SDS011;6211;49.124;9.152;2024-02-16T14:43:23;4.22;;;1.42;;
12296;SDS011;6211;49.124;9.152;2024-02-16T14:45:50;4.10;;;1.50;;
12296;SDS011;6211;49.124;9.152;2024-02-16T14:48:17;4.43;;;1.55;;
12296;SDS011;6211;49.124;9.152;2024-02-16T14:50:46;2.22;;;1.30;;
12296;SDS011;6211;49.124;9.152;2024-02-16T14:53:14;1.48;;;1.08;;
12296;SDS011;6211;49.124;9.152;2024-02-16T14:55:42;3.70;;;1.35;;
12296;SDS011;6211;49.124;9.152;2024-02-16T14:58:09;3.13;;;1.20;;
12296;SDS011;6211;49.124;9.152;2024-02-16T15:00:36;2.63;;;1.80;;
12296;SDS011;6211;49.124;9.152;2024-02-16T15:03:03;4.50;;;2.42;;